sensor_id;sensor_type;location;lat;lon;timestamp;pressure;altitude;pressure_sealevel;temperature;humidity
63903;BME280;50072;50.678;13.938;2022-07-10T00:02:04;99954.69;;;15.05;72.50
63903;BME280;50072;50.678;13.938;2022-07-10T00:04:29;99960.94;;;15.06;71.68
63903;BME280;50072;50.678;13.938;2022-07-10T00:06:58;99962.00;;;15.01;71.09
63903;BME280;50072;50.678;13.938;2022-07-10T00:09:24;99955.94;;;14.96;70.99
63903;BME280;50072;50.678;13.938;2022-07-10T00:11:50;99958.63;;;14.96;70.95
63903;BME280;50072;50.678;13.938;2022-07-10T00:14:16;99965.88;;;14.94;70.73
63903;BME280;50072;50.678;13.938;2022-07-10T00:16:46;99973.16;;;14.92;70.52
63903;BME280;50072;50.678;13.938;2022-07-10T00:19:18;99988.53;;;14.89;71.47
63903;BME280;50072;50.678;13.938;2022-07-10T00:21:44;99991.28;;;14.87;70.91
63903;BME280;50072;50.678;13.938;2022-07-10T00:24:11;99992.28;;;14.84;71.13
63903;BME280;50072;50.678;13.938;2022-07-10T00:26:46;99999.50;;;14.84;71.26
63903;BME280;50072;50.678;13.938;2022-07-10T00:29:16;99989.75;;;14.80;71.64
63903;BME280;50072;50.678;13.938;2022-07-10T00:31:47;99996.81;;;14.84;71.48
63903;BME280;50072;50.678;13.938;2022-07-10T00:34:13;99993.28;;;14.82;70.27
63903;BME280;50072;50.678;13.938;2022-07-10T00:36:39;99992.41;;;14.81;70.56
63903;BME280;50072;50.678;13.938;2022-07-10T00:39:07;99991.53;;;14.81;70.14
63903;BME280;50072;50.678;13.938;2022-07-10T00:41:46;99986.28;;;14.78;67.55
63903;BME280;50072;50.678;13.938;2022-07-10T00:44:16;99996.19;;;14.76;68.38
63903;BME280;50072;50.678;13.938;2022-07-10T00:46:46;100000.94;;;14.69;67.15
63903;BME280;50072;50.678;13.938;2022-07-10T00:49:12;99991.31;;;14.62;66.83
63903;BME280;50072;50.678;13.938;2022-07-10T00:51:38;99995.25;;;14.52;66.68
63903;BME280;50072;50.678;13.938;2022-07-10T00:54:11;100008.78;;;14.50;66.48
63903;BME280;50072;50.678;13.938;2022-07-10T00:56:41;100011.47;;;14.50;67.09
63903;BME280;50072;50.678;13.938;2022-07-10T00:59:17;100005.34;;;14.45;66.12
63903;BME280;50072;50.678;13.938;2022-07-10T01:01:44;100015.16;;;14.47;66.54
63903;BME280;50072;50.678;13.938;2022-07-10T01:04:10;100011.75;;;14.42;67.08
63903;BME280;50072;50.678;13.938;2022-07-10T01:06:36;100005.75;;;14.34;66.22
63903;BME280;50072;50.678;13.938;2022-07-10T01:09:02;100012.19;;;14.30;65.67
63903;BME280;50072;50.678;13.938;2022-07-10T01:11:37;100001.66;;;14.22;65.44
63903;BME280;50072;50.678;13.938;2022-07-10T01:14:05;100006.34;;;14.17;65.29
63903;BME280;50072;50.678;13.938;2022-07-10T01:16:32;100001.19;;;14.11;65.41
63903;BME280;50072;50.678;13.938;2022-07-10T01:18:58;100014.81;;;14.05;64.22
63903;BME280;50072;50.678;13.938;2022-07-10T01:21:30;100013.28;;;13.97;65.30
63903;BME280;50072;50.678;13.938;2022-07-10T01:24:05;99991.19;;;13.88;64.88
63903;BME280;50072;50.678;13.938;2022-07-10T01:26:35;100005.72;;;13.82;64.18
63903;BME280;50072;50.678;13.938;2022-07-10T01:29:06;100003.22;;;13.76;63.51
63903;BME280;50072;50.678;13.938;2022-07-10T01:31:34;99995.38;;;13.70;63.16
63903;BME280;50072;50.678;13.938;2022-07-10T01:34:11;100001.72;;;13.67;63.60
63903;BME280;50072;50.678;13.938;2022-07-10T01:36:46;99997.44;;;13.61;62.48
63903;BME280;50072;50.678;13.938;2022-07-10T01:39:13;99999.38;;;13.56;63.49
63903;BME280;50072;50.678;13.938;2022-07-10T01:41:46;100004.03;;;13.51;63.31
63903;BME280;50072;50.678;13.938;2022-07-10T01:44:18;100017.66;;;13.45;63.69
63903;BME280;50072;50.678;13.938;2022-07-10T01:46:46;100017.97;;;13.36;63.54
63903;BME280;50072;50.678;13.938;2022-07-10T01:49:16;100003.81;;;13.27;63.36
63903;BME280;50072;50.678;13.938;2022-07-10T01:51:48;100013.78;;;13.24;62.92
63903;BME280;50072;50.678;13.938;2022-07-10T01:54:16;99999.63;;;13.19;63.79
63903;BME280;50072;50.678;13.938;2022-07-10T01:56:46;100012.19;;;13.18;64.59
63903;BME280;50072;50.678;13.938;2022-07-10T02:01:47;100003.47;;;13.10;63.87
63903;BME280;50072;50.678;13.938;2022-07-10T02:04:13;99996.28;;;13.10;63.83
63903;BME280;50072;50.678;13.938;2022-07-10T02:06:57;99983.97;;;13.03;64.75
63903;BME280;50072;50.678;13.938;2022-07-10T02:09:30;99986.59;;;13.05;64.59
63903;BME280;50072;50.678;13.938;2022-07-10T02:12:16;99984.81;;;13.04;65.46
63903;BME280;50072;50.678;13.938;2022-07-10T02:14:48;99987.66;;;12.99;64.87
63903;BME280;50072;50.678;13.938;2022-07-10T02:17:16;99984.09;;;12.99;64.64
63903;BME280;50072;50.678;13.938;2022-07-10T02:19:46;99976.03;;;12.99;65.20
63903;BME280;50072;50.678;13.938;2022-07-10T02:22:16;99983.31;;;12.95;65.08
63903;BME280;50072;50.678;13.938;2022-07-10T02:24:42;99976.25;;;12.91;65.08
63903;BME280;50072;50.678;13.938;2022-07-10T02:27:07;99974.63;;;12.85;65.50
63903;BME280;50072;50.678;13.938;2022-07-10T02:29:46;99969.44;;;12.79;65.85
63903;BME280;50072;50.678;13.938;2022-07-10T02:32:13;99957.13;;;12.72;65.80
63903;BME280;50072;50.678;13.938;2022-07-10T02:34:46;99962.66;;;12.67;66.12
63903;BME280;50072;50.678;13.938;2022-07-10T02:37:12;99974.38;;;12.63;66.34
63903;BME280;50072;50.678;13.938;2022-07-10T02:39:39;99972.72;;;12.59;66.65
63903;BME280;50072;50.678;13.938;2022-07-10T02:42:08;99965.63;;;12.56;66.57
63903;BME280;50072;50.678;13.938;2022-07-10T02:44:46;99956.75;;;12.54;67.13
63903;BME280;50072;50.678;13.938;2022-07-10T02:47:12;99960.44;;;12.50;67.58
63903;BME280;50072;50.678;13.938;2022-07-10T02:49:46;99964.03;;;12.49;67.74
63903;BME280;50072;50.678;13.938;2022-07-10T02:52:12;99961.59;;;12.41;68.31
63903;BME280;50072;50.678;13.938;2022-07-10T02:54:40;99950.94;;;12.37;68.38
63903;BME280;50072;50.678;13.938;2022-07-10T02:57:11;99942.22;;;12.30;68.72
63903;BME280;50072;50.678;13.938;2022-07-10T02:59:46;99947.63;;;12.29;67.85
63903;BME280;50072;50.678;13.938;2022-07-10T03:02:16;99943.22;;;12.26;68.53
63903;BME280;50072;50.678;13.938;2022-07-10T03:04:42;99935.31;;;12.21;68.33
63903;BME280;50072;50.678;13.938;2022-07-10T03:07:09;99954.00;;;12.24;68.68
63903;BME280;50072;50.678;13.938;2022-07-10T03:09:41;99938.91;;;12.20;68.74
63903;BME280;50072;50.678;13.938;2022-07-10T03:12:16;99932.63;;;12.20;67.92
63903;BME280;50072;50.678;13.938;2022-07-10T03:14:47;99955.72;;;12.25;68.29
63903;BME280;50072;50.678;13.938;2022-07-10T03:17:13;99948.63;;;12.24;69.11
63903;BME280;50072;50.678;13.938;2022-07-10T03:19:38;99953.13;;;12.22;68.82
63903;BME280;50072;50.678;13.938;2022-07-10T03:22:08;99953.41;;;12.13;69.23
63903;BME280;50072;50.678;13.938;2022-07-10T03:24:34;99948.19;;;12.07;68.83
63903;BME280;50072;50.678;13.938;2022-07-10T03:27:10;99942.81;;;12.07;69.47
63903;BME280;50072;50.678;13.938;2022-07-10T03:29:41;99938.50;;;12.01;70.18
63903;BME280;50072;50.678;13.938;2022-07-10T03:32:13;99932.34;;;11.98;68.84
63903;BME280;50072;50.678;13.938;2022-07-10T03:34:39;99948.25;;;12.04;69.13
63903;BME280;50072;50.678;13.938;2022-07-10T03:37:13;99951.84;;;12.04;69.00
63903;BME280;50072;50.678;13.938;2022-07-10T03:39:40;99940.25;;;12.02;69.50
63903;BME280;50072;50.678;13.938;2022-07-10T03:42:07;99949.13;;;12.06;70.28
63903;BME280;50072;50.678;13.938;2022-07-10T03:44:43;99951.81;;;12.06;68.75
63903;BME280;50072;50.678;13.938;2022-07-10T03:47:12;99948.22;;;12.05;69.15
63903;BME280;50072;50.678;13.938;2022-07-10T03:49:46;99952.81;;;12.02;69.11
63903;BME280;50072;50.678;13.938;2022-07-10T03:52:18;99958.13;;;12.03;69.41
63903;BME280;50072;50.678;13.938;2022-07-10T03:54:45;99958.09;;;12.05;69.54
63903;BME280;50072;50.678;13.938;2022-07-10T03:57:17;99951.81;;;12.06;68.54
63903;BME280;50072;50.678;13.938;2022-07-10T04:00:07;99946.25;;;12.12;69.16
63903;BME280;50072;50.678;13.938;2022-07-10T04:02:33;99935.44;;;12.15;68.71
63903;BME280;50072;50.678;13.938;2022-07-10T04:05:07;99938.81;;;12.23;67.97
63903;BME280;50072;50.678;13.938;2022-07-10T04:07:42;99938.53;;;12.34;67.77
63903;BME280;50072;50.678;13.938;2022-07-10T04:10:16;99929.31;;;12.43;67.56
63903;BME280;50072;50.678;13.938;2022-07-10T04:12:44;99941.75;;;12.47;67.56
63903;BME280;50072;50.678;13.938;2022-07-10T04:15:12;99948.78;;;12.51;67.88
63903;BME280;50072;50.678;13.938;2022-07-10T04:17:46;99935.22;;;12.56;66.76
63903;BME280;50072;50.678;13.938;2022-07-10T04:20:14;99938.63;;;12.61;67.17
63903;BME280;50072;50.678;13.938;2022-07-10T04:22:46;99938.47;;;12.67;66.05
63903;BME280;50072;50.678;13.938;2022-07-10T04:25:14;99940.06;;;12.74;66.33
63903;BME280;50072;50.678;13.938;2022-07-10T04:27:46;99934.53;;;12.79;66.82
63903;BME280;50072;50.678;13.938;2022-07-10T04:30:16;99922.88;;;12.80;66.35
63903;BME280;50072;50.678;13.938;2022-07-10T04:32:47;99924.53;;;12.84;66.61
63903;BME280;50072;50.678;13.938;2022-07-10T04:35:14;99939.53;;;12.91;66.92
63903;BME280;50072;50.678;13.938;2022-07-10T04:37:46;99940.28;;;12.97;66.78
63903;BME280;50072;50.678;13.938;2022-07-10T04:40:18;99934.78;;;13.00;65.70
63903;BME280;50072;50.678;13.938;2022-07-10T04:42:44;99921.34;;;13.00;66.21
63903;BME280;50072;50.678;13.938;2022-07-10T04:45:16;99933.59;;;13.10;66.40
63903;BME280;50072;50.678;13.938;2022-07-10T04:47:44;99930.81;;;13.13;65.20
63903;BME280;50072;50.678;13.938;2022-07-10T04:50:10;99935.16;;;13.17;66.29
63903;BME280;50072;50.678;13.938;2022-07-10T04:52:36;99922.44;;;13.22;65.40
63903;BME280;50072;50.678;13.938;2022-07-10T04:55:03;99929.38;;;13.29;65.81
63903;BME280;50072;50.678;13.938;2022-07-10T04:57:39;99931.03;;;13.34;65.06
63903;BME280;50072;50.678;13.938;2022-07-10T05:00:08;99932.75;;;13.38;65.90
63903;BME280;50072;50.678;13.938;2022-07-10T05:02:45;99931.72;;;13.42;64.93
63903;BME280;50072;50.678;13.938;2022-07-10T05:05:12;99929.88;;;13.44;64.82
63903;BME280;50072;50.678;13.938;2022-07-10T05:07:46;99925.31;;;13.46;64.78
63903;BME280;50072;50.678;13.938;2022-07-10T05:10:17;99922.63;;;13.46;64.65
63903;BME280;50072;50.678;13.938;2022-07-10T05:12:43;99919.03;;;13.47;65.56
63903;BME280;50072;50.678;13.938;2022-07-10T05:15:16;99917.25;;;13.46;65.02
63903;BME280;50072;50.678;13.938;2022-07-10T05:17:47;99906.84;;;13.34;64.96
63903;BME280;50072;50.678;13.938;2022-07-10T05:20:16;99920.09;;;13.41;65.41
63903;BME280;50072;50.678;13.938;2022-07-10T05:22:47;99909.34;;;13.41;64.68
63903;BME280;50072;50.678;13.938;2022-07-10T05:25:14;99900.47;;;13.38;64.78
63903;BME280;50072;50.678;13.938;2022-07-10T05:27:45;99908.31;;;13.45;65.26
63903;BME280;50072;50.678;13.938;2022-07-10T05:30:16;99906.34;;;13.51;65.61
63903;BME280;50072;50.678;13.938;2022-07-10T05:32:44;99915.31;;;13.51;65.24
63903;BME280;50072;50.678;13.938;2022-07-10T05:35:16;99924.91;;;13.58;64.92
63903;BME280;50072;50.678;13.938;2022-07-10T05:37:47;99937.22;;;13.66;64.61
63903;BME280;50072;50.678;13.938;2022-07-10T05:40:16;99915.59;;;13.69;64.72
63903;BME280;50072;50.678;13.938;2022-07-10T05:42:46;99947.88;;;13.69;63.18
63903;BME280;50072;50.678;13.938;2022-07-10T05:45:17;99936.09;;;13.73;63.53
63903;BME280;50072;50.678;13.938;2022-07-10T05:47:46;99946.63;;;13.79;63.69
63903;BME280;50072;50.678;13.938;2022-07-10T05:50:16;99941.25;;;13.79;64.74
63903;BME280;50072;50.678;13.938;2022-07-10T05:52:47;99939.34;;;13.83;63.58
63903;BME280;50072;50.678;13.938;2022-07-10T05:55:19;99946.22;;;13.91;64.26
63903;BME280;50072;50.678;13.938;2022-07-10T05:57:46;99948.91;;;13.91;64.12
63903;BME280;50072;50.678;13.938;2022-07-10T06:00:12;99941.66;;;13.93;64.13
63903;BME280;50072;50.678;13.938;2022-07-10T06:02:38;99940.63;;;13.97;64.02
63903;BME280;50072;50.678;13.938;2022-07-10T06:05:11;99950.41;;;14.00;63.95
63903;BME280;50072;50.678;13.938;2022-07-10T06:07:37;99949.63;;;13.96;63.17
63903;BME280;50072;50.678;13.938;2022-07-10T06:10:04;99942.44;;;13.97;62.75
63903;BME280;50072;50.678;13.938;2022-07-10T06:12:29;99944.97;;;14.02;63.50
63903;BME280;50072;50.678;13.938;2022-07-10T06:14:55;99948.38;;;14.07;63.00
63903;BME280;50072;50.678;13.938;2022-07-10T06:17:22;99925.91;;;14.08;63.01
63903;BME280;50072;50.678;13.938;2022-07-10T06:19:49;99941.97;;;14.11;62.43
63903;BME280;50072;50.678;13.938;2022-07-10T06:22:14;99945.59;;;14.10;62.10
63903;BME280;50072;50.678;13.938;2022-07-10T06:25:00;99941.00;;;14.12;62.42
63903;BME280;50072;50.678;13.938;2022-07-10T06:27:26;99941.84;;;14.14;62.90
63903;BME280;50072;50.678;13.938;2022-07-10T06:29:52;99945.25;;;14.19;62.82
63903;BME280;50072;50.678;13.938;2022-07-10T06:32:18;99947.88;;;14.21;62.71
63903;BME280;50072;50.678;13.938;2022-07-10T06:34:45;99946.78;;;14.26;61.90
63903;BME280;50072;50.678;13.938;2022-07-10T06:37:10;99950.19;;;14.31;62.37
63903;BME280;50072;50.678;13.938;2022-07-10T06:39:36;99945.38;;;14.41;62.32
63903;BME280;50072;50.678;13.938;2022-07-10T06:42:04;99950.31;;;14.54;61.47
63903;BME280;50072;50.678;13.938;2022-07-10T06:44:30;99964.25;;;14.65;62.06
63903;BME280;50072;50.678;13.938;2022-07-10T06:46:57;99960.25;;;14.77;61.76
63903;BME280;50072;50.678;13.938;2022-07-10T06:49:45;99957.47;;;15.02;61.63
63903;BME280;50072;50.678;13.938;2022-07-10T06:52:12;99955.88;;;15.20;61.42
63903;BME280;50072;50.678;13.938;2022-07-10T06:54:39;99967.97;;;15.33;61.80
63903;BME280;50072;50.678;13.938;2022-07-10T06:57:06;99971.72;;;15.29;61.47
63903;BME280;50072;50.678;13.938;2022-07-10T06:59:32;99971.72;;;15.29;62.15
63903;BME280;50072;50.678;13.938;2022-07-10T07:01:59;99973.56;;;15.27;61.35
63903;BME280;50072;50.678;13.938;2022-07-10T07:04:24;99969.75;;;15.33;61.37
63903;BME280;50072;50.678;13.938;2022-07-10T07:06:50;99976.66;;;15.40;61.15
63903;BME280;50072;50.678;13.938;2022-07-10T07:09:16;99967.94;;;15.56;61.58
63903;BME280;50072;50.678;13.938;2022-07-10T07:11:43;99985.91;;;15.57;62.07
63903;BME280;50072;50.678;13.938;2022-07-10T07:14:09;99982.00;;;15.42;64.67
63903;BME280;50072;50.678;13.938;2022-07-10T07:16:34;99987.97;;;15.28;67.97
63903;BME280;50072;50.678;13.938;2022-07-10T07:19:12;99984.34;;;15.05;65.61
63903;BME280;50072;50.678;13.938;2022-07-10T07:21:44;99991.22;;;14.89;68.25
63903;BME280;50072;50.678;13.938;2022-07-10T07:24:28;100000.53;;;14.80;68.72
63903;BME280;50072;50.678;13.938;2022-07-10T07:26:54;99989.34;;;14.67;67.89
63903;BME280;50072;50.678;13.938;2022-07-10T07:29:20;100000.38;;;14.59;68.20
63903;BME280;50072;50.678;13.938;2022-07-10T07:31:46;100001.09;;;14.64;68.33
63903;BME280;50072;50.678;13.938;2022-07-10T07:34:13;100002.38;;;14.79;68.71
63903;BME280;50072;50.678;13.938;2022-07-10T07:36:39;100001.84;;;14.93;66.11
63903;BME280;50072;50.678;13.938;2022-07-10T07:39:06;100004.84;;;15.09;67.76
63903;BME280;50072;50.678;13.938;2022-07-10T07:41:32;100000.06;;;15.16;65.75
63903;BME280;50072;50.678;13.938;2022-07-10T07:43:58;99998.78;;;15.26;65.86
63903;BME280;50072;50.678;13.938;2022-07-10T07:46:25;100018.09;;;15.38;63.38
63903;BME280;50072;50.678;13.938;2022-07-10T07:48:51;100010.38;;;15.52;63.66
63903;BME280;50072;50.678;13.938;2022-07-10T07:51:17;100010.75;;;15.65;63.75
63903;BME280;50072;50.678;13.938;2022-07-10T07:53:44;100008.22;;;15.84;62.33
63903;BME280;50072;50.678;13.938;2022-07-10T07:56:10;100006.50;;;16.03;59.38
63903;BME280;50072;50.678;13.938;2022-07-10T07:58:36;100009.50;;;16.38;59.57
63903;BME280;50072;50.678;13.938;2022-07-10T08:01:02;100000.38;;;16.41;58.45
63903;BME280;50072;50.678;13.938;2022-07-10T08:03:29;100004.63;;;16.47;58.94
63903;BME280;50072;50.678;13.938;2022-07-10T08:05:55;100008.69;;;16.36;59.86
63903;BME280;50072;50.678;13.938;2022-07-10T08:08:21;99999.66;;;16.37;58.70
63903;BME280;50072;50.678;13.938;2022-07-10T08:10:47;100006.53;;;16.65;58.04
63903;BME280;50072;50.678;13.938;2022-07-10T08:13:13;100005.75;;;16.82;57.41
63903;BME280;50072;50.678;13.938;2022-07-10T08:15:39;99996.91;;;16.99;57.82
63903;BME280;50072;50.678;13.938;2022-07-10T08:18:10;100006.94;;;17.16;56.17
63903;BME280;50072;50.678;13.938;2022-07-10T08:20:36;100011.56;;;17.33;54.83
63903;BME280;50072;50.678;13.938;2022-07-10T08:23:03;99994.44;;;17.52;54.81
63903;BME280;50072;50.678;13.938;2022-07-10T08:25:29;99993.06;;;17.80;53.74
63903;BME280;50072;50.678;13.938;2022-07-10T08:28:00;99990.81;;;18.07;53.98
63903;BME280;50072;50.678;13.938;2022-07-10T08:30:26;99987.25;;;18.24;50.30
63903;BME280;50072;50.678;13.938;2022-07-10T08:32:52;99970.59;;;18.49;50.46
63903;BME280;50072;50.678;13.938;2022-07-10T08:35:17;99976.69;;;18.70;51.08
63903;BME280;50072;50.678;13.938;2022-07-10T08:37:44;99971.63;;;18.97;50.67
63903;BME280;50072;50.678;13.938;2022-07-10T08:40:13;99971.94;;;19.25;49.39
63903;BME280;50072;50.678;13.938;2022-07-10T08:42:41;99962.38;;;19.49;47.36
63903;BME280;50072;50.678;13.938;2022-07-10T08:45:09;99967.34;;;20.05;47.33
63903;BME280;50072;50.678;13.938;2022-07-10T08:47:37;99966.88;;;20.58;47.59
63903;BME280;50072;50.678;13.938;2022-07-10T08:50:16;99979.19;;;20.94;43.63
63903;BME280;50072;50.678;13.938;2022-07-10T08:53:06;99969.63;;;21.30;43.57
63903;BME280;50072;50.678;13.938;2022-07-10T08:55:35;99954.75;;;21.35;40.55
63903;BME280;50072;50.678;13.938;2022-07-10T08:58:03;99951.81;;;21.38;38.69
63903;BME280;50072;50.678;13.938;2022-07-10T09:00:31;99952.75;;;20.81;39.71
63903;BME280;50072;50.678;13.938;2022-07-10T09:02:58;99946.25;;;21.40;39.83
63903;BME280;50072;50.678;13.938;2022-07-10T09:05:26;99939.78;;;21.70;40.97
63903;BME280;50072;50.678;13.938;2022-07-10T09:07:53;99940.22;;;21.64;40.93
63903;BME280;50072;50.678;13.938;2022-07-10T09:10:25;99947.97;;;22.10;39.95
63903;BME280;50072;50.678;13.938;2022-07-10T09:12:57;99940.44;;;22.41;37.67
63903;BME280;50072;50.678;13.938;2022-07-10T09:15:25;99935.44;;;22.61;37.46
63903;BME280;50072;50.678;13.938;2022-07-10T09:17:56;99932.38;;;22.78;38.97
63903;BME280;50072;50.678;13.938;2022-07-10T09:20:28;99938.25;;;22.85;37.23
63903;BME280;50072;50.678;13.938;2022-07-10T09:22:58;99945.44;;;22.73;37.32
63903;BME280;50072;50.678;13.938;2022-07-10T09:25:32;99945.63;;;23.21;37.32
63903;BME280;50072;50.678;13.938;2022-07-10T09:28:04;99940.88;;;23.49;37.04
63903;BME280;50072;50.678;13.938;2022-07-10T09:30:37;99940.34;;;23.68;35.61
63903;BME280;50072;50.678;13.938;2022-07-10T09:33:28;99949.25;;;23.96;35.50
63903;BME280;50072;50.678;13.938;2022-07-10T09:43:46;99941.50;;;24.25;35.17
63903;BME280;50072;50.678;13.938;2022-07-10T09:46:13;99931.94;;;24.78;34.88
63903;BME280;50072;50.678;13.938;2022-07-10T09:48:39;99930.88;;;24.45;33.57
63903;BME280;50072;50.678;13.938;2022-07-10T09:51:09;99927.03;;;24.59;32.71
63903;BME280;50072;50.678;13.938;2022-07-10T09:53:41;99923.09;;;24.63;30.97
63903;BME280;50072;50.678;13.938;2022-07-10T09:56:08;99923.72;;;24.78;34.59
63903;BME280;50072;50.678;13.938;2022-07-10T09:58:35;99919.59;;;25.18;32.79
63903;BME280;50072;50.678;13.938;2022-07-10T10:01:06;99923.97;;;25.20;31.42
63903;BME280;50072;50.678;13.938;2022-07-10T10:03:36;99922.44;;;25.50;33.75
63903;BME280;50072;50.678;13.938;2022-07-10T10:06:15;99921.47;;;25.83;31.45
63903;BME280;50072;50.678;13.938;2022-07-10T10:11:24;99924.66;;;26.63;30.35
63903;BME280;50072;50.678;13.938;2022-07-10T10:13:53;99917.53;;;26.72;31.06
63903;BME280;50072;50.678;13.938;2022-07-10T10:16:22;99913.00;;;27.33;30.93
63903;BME280;50072;50.678;13.938;2022-07-10T10:18:50;99914.84;;;27.83;29.79
63903;BME280;50072;50.678;13.938;2022-07-10T10:21:36;99925.59;;;28.25;30.22
63903;BME280;50072;50.678;13.938;2022-07-10T10:24:02;99913.44;;;28.18;27.44
63903;BME280;50072;50.678;13.938;2022-07-10T10:26:28;99927.56;;;27.64;28.96
63903;BME280;50072;50.678;13.938;2022-07-10T10:28:56;99924.09;;;27.92;28.77
63903;BME280;50072;50.678;13.938;2022-07-10T10:31:29;99945.84;;;27.85;27.36
63903;BME280;50072;50.678;13.938;2022-07-10T10:33:56;99939.03;;;27.69;29.33
63903;BME280;50072;50.678;13.938;2022-07-10T10:39:15;99920.97;;;28.92;30.25
63903;BME280;50072;50.678;13.938;2022-07-10T10:41:47;99933.41;;;29.34;29.13
63903;BME280;50072;50.678;13.938;2022-07-10T10:49:21;99939.03;;;26.88;29.68
63903;BME280;50072;50.678;13.938;2022-07-10T10:51:58;99946.44;;;26.13;28.65
63903;BME280;50072;50.678;13.938;2022-07-10T10:54:27;99961.94;;;25.25;31.21
63903;BME280;50072;50.678;13.938;2022-07-10T10:57:24;99969.28;;;24.90;31.12
63903;BME280;50072;50.678;13.938;2022-07-10T11:00:07;99957.91;;;23.77;31.21
63903;BME280;50072;50.678;13.938;2022-07-10T11:02:35;99962.94;;;23.83;32.80
63903;BME280;50072;50.678;13.938;2022-07-10T11:08:02;99965.78;;;24.88;31.92
63903;BME280;50072;50.678;13.938;2022-07-10T11:10:42;99930.44;;;24.96;30.64
63903;BME280;50072;50.678;13.938;2022-07-10T11:13:13;99970.03;;;24.45;32.92
63903;BME280;50072;50.678;13.938;2022-07-10T11:15:41;99968.19;;;23.12;34.05
63903;BME280;50072;50.678;13.938;2022-07-10T11:18:10;99964.88;;;22.55;35.41
63903;BME280;50072;50.678;13.938;2022-07-10T11:20:40;99967.59;;;22.02;35.39
63903;BME280;50072;50.678;13.938;2022-07-10T11:23:32;99958.97;;;21.68;36.88
63903;BME280;50072;50.678;13.938;2022-07-10T11:26:04;99976.59;;;21.63;35.86
63903;BME280;50072;50.678;13.938;2022-07-10T11:28:53;99973.00;;;21.33;35.33
63903;BME280;50072;50.678;13.938;2022-07-10T11:31:26;99974.13;;;21.02;35.51
63903;BME280;50072;50.678;13.938;2022-07-10T11:33:54;99978.78;;;21.00;38.21
63903;BME280;50072;50.678;13.938;2022-07-10T11:36:24;99965.97;;;20.73;36.92
63903;BME280;50072;50.678;13.938;2022-07-10T11:39:03;99963.13;;;20.15;38.03
63903;BME280;50072;50.678;13.938;2022-07-10T11:41:30;99977.47;;;20.17;38.41
63903;BME280;50072;50.678;13.938;2022-07-10T11:44:01;99973.88;;;20.17;39.81
63903;BME280;50072;50.678;13.938;2022-07-10T11:46:32;99970.13;;;20.20;38.52
63903;BME280;50072;50.678;13.938;2022-07-10T11:49:02;99968.22;;;20.95;37.82
63903;BME280;50072;50.678;13.938;2022-07-10T11:51:33;99952.22;;;22.54;38.00
63903;BME280;50072;50.678;13.938;2022-07-10T11:56:40;99950.72;;;25.28;33.19
63903;BME280;50072;50.678;13.938;2022-07-10T11:59:09;99951.09;;;26.76;33.87
63903;BME280;50072;50.678;13.938;2022-07-10T12:01:44;99948.03;;;27.41;28.18
63903;BME280;50072;50.678;13.938;2022-07-10T12:04:12;99956.06;;;27.53;27.65
63903;BME280;50072;50.678;13.938;2022-07-10T12:06:40;99943.09;;;26.30;28.65
63903;BME280;50072;50.678;13.938;2022-07-10T12:09:09;99938.88;;;26.26;29.39
63903;BME280;50072;50.678;13.938;2022-07-10T12:11:36;99944.88;;;27.35;28.75
63903;BME280;50072;50.678;13.938;2022-07-10T12:14:19;99951.50;;;25.85;29.40
63903;BME280;50072;50.678;13.938;2022-07-10T12:16:50;99953.81;;;25.57;30.42
63903;BME280;50072;50.678;13.938;2022-07-10T12:19:18;99958.47;;;25.23;30.48
63903;BME280;50072;50.678;13.938;2022-07-10T12:21:46;99949.66;;;25.74;30.25
63903;BME280;50072;50.678;13.938;2022-07-10T12:24:16;99957.25;;;25.71;29.68
63903;BME280;50072;50.678;13.938;2022-07-10T12:26:42;99957.56;;;25.56;31.19
63903;BME280;50072;50.678;13.938;2022-07-10T12:31:44;99963.03;;;27.67;29.95
63903;BME280;50072;50.678;13.938;2022-07-10T12:34:10;99948.56;;;27.75;27.81
63903;BME280;50072;50.678;13.938;2022-07-10T12:36:47;99961.84;;;27.60;28.12
63903;BME280;50072;50.678;13.938;2022-07-10T12:39:21;99958.41;;;29.23;27.62
63903;BME280;50072;50.678;13.938;2022-07-10T12:42:05;99950.47;;;29.48;24.08
63903;BME280;50072;50.678;13.938;2022-07-10T12:44:45;99961.28;;;29.87;24.08
63903;BME280;50072;50.678;13.938;2022-07-10T12:47:16;99969.56;;;29.87;24.14
63903;BME280;50072;50.678;13.938;2022-07-10T12:49:56;99953.47;;;29.54;23.92
63903;BME280;50072;50.678;13.938;2022-07-10T12:55:13;99966.69;;;29.23;25.17
63903;BME280;50072;50.678;13.938;2022-07-10T12:58:20;99979.16;;;28.50;24.95
63903;BME280;50072;50.678;13.938;2022-07-10T13:00:47;99966.72;;;28.36;25.54
63903;BME280;50072;50.678;13.938;2022-07-10T13:03:21;99970.25;;;27.28;26.40
63903;BME280;50072;50.678;13.938;2022-07-10T13:05:50;99971.09;;;27.59;26.74
63903;BME280;50072;50.678;13.938;2022-07-10T13:08:20;99975.16;;;26.30;27.73
63903;BME280;50072;50.678;13.938;2022-07-10T13:10:51;99971.47;;;25.76;30.18
63903;BME280;50072;50.678;13.938;2022-07-10T13:13:17;99984.59;;;25.38;31.10
63903;BME280;50072;50.678;13.938;2022-07-10T13:15:45;99978.50;;;25.46;30.67
63903;BME280;50072;50.678;13.938;2022-07-10T13:18:23;99973.28;;;25.43;30.96
63903;BME280;50072;50.678;13.938;2022-07-10T13:20:52;99963.81;;;25.24;32.83
63903;BME280;50072;50.678;13.938;2022-07-10T13:23:19;99959.31;;;25.01;32.71
63903;BME280;50072;50.678;13.938;2022-07-10T13:25:48;99970.78;;;24.94;33.40
63903;BME280;50072;50.678;13.938;2022-07-10T13:28:14;99969.38;;;24.77;32.45
63903;BME280;50072;50.678;13.938;2022-07-10T13:30:42;99972.00;;;24.79;31.57
63903;BME280;50072;50.678;13.938;2022-07-10T13:33:08;99975.81;;;23.94;32.03
63903;BME280;50072;50.678;13.938;2022-07-10T13:35:34;99982.25;;;23.69;33.45